Time;durP1;ratioP1;P1;durP2;ratioP2;P2;SDS_P1;SDS_P2;PMS_P1;PMS_P2;Temp;Humidity;BMP_temperature;BMP_pressure;BME280_temperature;BME280_humidity;BME280_pressure;Samples;Min_cycle;Max_cycle;Signal;HPM_P1;HPM_P2
2022/05/08 00:00:31;;;;;;;10.55;2.00;;;8.90;99.90;;;;;;4994898;28;20034;-71
2022/05/08 00:02:58;;;;;;;7.65;2.83;;;8.90;99.90;;;;;;5005311;28;20030;-70
2022/05/08 00:05:24;;;;;;;3.88;2.22;;;8.80;99.90;;;;;;5005715;28;20029;-72
2022/05/08 00:07:50;;;;;;;7.03;2.25;;;8.80;99.90;;;;;;4987221;28;20027;-71
2022/05/08 00:10:20;;;;;;;18.95;2.78;;;8.80;99.90;;;;;;5005744;28;20026;-70
2022/05/08 00:12:50;;;;;;;8.75;2.88;;;8.80;99.90;;;;;;5005249;28;20026;-71
2022/05/08 00:15:16;;;;;;;2.83;1.60;;;8.80;99.90;;;;;;5001235;28;20042;-71
2022/05/08 00:17:43;;;;;;;14.23;2.83;;;8.70;99.90;;;;;;4985881;28;20030;-70
2022/05/08 00:20:09;;;;;;;4.22;2.38;;;8.70;99.90;;;;;;4985717;28;20034;-70
2022/05/08 00:22:35;;;;;;;7.97;1.63;;;8.70;99.90;;;;;;4986235;28;20434;-70
2022/05/08 00:25:02;;;;;;;19.92;2.30;;;8.60;99.90;;;;;;4985691;28;20034;-70
2022/05/08 00:27:27;;;;;;;9.68;2.50;;;8.60;99.90;;;;;;5003590;28;20022;-70
2022/05/08 00:29:53;;;;;;;5.53;2.10;;;8.60;99.90;;;;;;5005508;28;20062;-72
2022/05/08 00:32:20;;;;;;;8.48;2.35;;;8.50;99.90;;;;;;5005126;28;20053;-71
2022/05/08 00:34:46;;;;;;;7.32;2.47;;;8.50;99.90;;;;;;5003978;28;20034;-71
2022/05/08 00:37:12;;;;;;;6.70;1.38;;;8.50;99.90;;;;;;5005530;28;20042;-70
2022/05/08 00:39:37;;;;;;;9.52;2.80;;;8.50;99.90;;;;;;5001254;28;20046;-69
2022/05/08 00:42:03;;;;;;;6.30;1.60;;;8.50;99.90;;;;;;4985989;28;20035;-70
2022/05/08 00:44:29;;;;;;;5.20;2.25;;;8.50;99.90;;;;;;4985851;28;20027;-70
2022/05/08 00:46:55;;;;;;;4.90;1.80;;;8.50;99.90;;;;;;4985170;28;20051;-70
2022/05/08 00:49:20;;;;;;;3.03;1.48;;;8.50;99.90;;;;;;4985828;28;20026;-71
2022/05/08 00:51:49;;;;;;;18.65;3.17;;;8.50;99.90;;;;;;4985699;28;20391;-72
2022/05/08 00:54:24;;;;;;;10.57;2.13;;;8.50;99.90;;;;;;4985672;28;20042;-71
2022/05/08 00:56:50;;;;;;;4.93;1.65;;;8.50;99.90;;;;;;4986146;28;20059;-70
2022/05/08 00:59:16;;;;;;;7.25;2.45;;;8.40;99.90;;;;;;4985532;28;20070;-70
2022/05/08 01:01:42;;;;;;;5.47;1.30;;;8.40;99.90;;;;;;5005216;28;20049;-70
2022/05/08 01:04:07;;;;;;;7.22;2.00;;;8.40;99.90;;;;;;5005114;28;20034;-71
2022/05/08 01:06:33;;;;;;;13.48;1.88;;;8.40;99.90;;;;;;5005068;28;20517;-71
2022/05/08 01:08:59;;;;;;;3.95;2.00;;;8.30;99.90;;;;;;4987642;28;20030;-70
2022/05/08 01:11:24;;;;;;;15.85;2.00;;;8.30;99.90;;;;;;5003570;28;20038;-70
2022/05/08 01:13:50;;;;;;;3.58;2.08;;;8.30;99.90;;;;;;5005061;28;20034;-71
2022/05/08 01:16:20;;;;;;;15.30;1.98;;;8.30;99.90;;;;;;4997237;28;20057;-71
2022/05/08 01:18:48;;;;;;;9.73;1.90;;;8.20;99.90;;;;;;4984157;28;20043;-71
2022/05/08 01:21:22;;;;;;;5.10;2.45;;;8.20;99.90;;;;;;4988729;28;20033;-70
2022/05/08 01:23:48;;;;;;;6.82;2.22;;;8.20;99.90;;;;;;4985782;28;20027;-71
2022/05/08 01:26:21;;;;;;;4.32;1.67;;;8.20;99.90;;;;;;4985219;28;20038;-70
2022/05/08 01:28:47;;;;;;;14.00;1.90;;;8.20;99.90;;;;;;4985702;28;20454;-71
2022/05/08 01:31:12;;;;;;;11.45;1.75;;;8.20;99.90;;;;;;4995649;28;20098;-70
2022/05/08 01:33:39;;;;;;;3.45;1.33;;;8.20;99.90;;;;;;5007327;28;20034;-70
2022/05/08 01:36:05;;;;;;;6.63;1.75;;;8.20;99.90;;;;;;5008452;28;20039;-71
2022/05/08 01:38:30;;;;;;;15.55;1.13;;;8.30;99.90;;;;;;5008206;28;20098;-71
2022/05/08 01:41:03;;;;;;;21.33;3.05;;;8.20;99.90;;;;;;5007825;28;20427;-71
2022/05/08 01:43:34;;;;;;;6.72;2.17;;;8.20;99.90;;;;;;5008225;28;20110;-72
2022/05/08 01:46:00;;;;;;;2.92;1.52;;;8.10;99.90;;;;;;5007740;28;20046;-71
2022/05/08 01:48:26;;;;;;;3.70;1.33;;;8.20;99.90;;;;;;5008115;28;20375;-71
2022/05/08 01:50:57;;;;;;;8.88;1.27;;;8.20;99.90;;;;;;5007073;28;20101;-71
2022/05/08 01:53:25;;;;;;;6.88;1.55;;;8.20;99.90;;;;;;5007440;28;20419;-71
2022/05/08 01:55:54;;;;;;;5.68;1.48;;;8.10;99.90;;;;;;5007990;28;20027;-69
2022/05/08 01:58:20;;;;;;;1.77;1.20;;;8.10;99.90;;;;;;5007990;28;20109;-71
2022/05/08 02:00:49;;;;;;;4.07;1.33;;;8.10;99.90;;;;;;5005305;28;20538;-70
2022/05/08 02:03:14;;;;;;;7.95;1.45;;;8.10;99.90;;;;;;4988661;28;20030;-70
2022/05/08 02:05:42;;;;;;;5.53;1.65;;;8.00;99.90;;;;;;4988450;28;20035;-70
2022/05/08 02:08:09;;;;;;;4.38;1.38;;;8.00;99.90;;;;;;4988094;28;20023;-71
2022/05/08 02:10:35;;;;;;;4.15;1.67;;;8.00;99.90;;;;;;4988250;28;20037;-71
2022/05/08 02:13:01;;;;;;;3.55;1.65;;;8.00;99.90;;;;;;4987992;28;20467;-70
2022/05/08 02:15:29;;;;;;;6.32;1.77;;;7.90;99.90;;;;;;4988061;28;20053;-70
2022/05/08 02:18:02;;;;;;;2.83;1.67;;;7.80;99.90;;;;;;4988227;28;20030;-70
2022/05/08 02:20:28;;;;;;;8.05;1.73;;;7.80;99.90;;;;;;4987906;28;20035;-70
2022/05/08 02:22:54;;;;;;;4.75;1.73;;;7.70;99.90;;;;;;4988191;28;20027;-71
2022/05/08 02:25:26;;;;;;;6.80;1.58;;;7.70;99.90;;;;;;4987478;28;20037;-69
2022/05/08 02:27:52;;;;;;;14.35;1.70;;;7.70;99.90;;;;;;5005280;28;20034;-70
2022/05/08 02:30:23;;;;;;;3.13;1.50;;;7.60;99.90;;;;;;5007606;28;20030;-71
2022/05/08 02:32:51;;;;;;;4.15;1.92;;;7.60;99.90;;;;;;5007535;28;20038;-70
2022/05/08 02:35:20;;;;;;;9.68;1.52;;;7.60;99.90;;;;;;5007142;28;20061;-69
2022/05/08 02:37:52;;;;;;;10.82;2.05;;;7.60;99.90;;;;;;5006841;28;20034;-69
2022/05/08 02:40:20;;;;;;;21.42;1.98;;;7.60;99.90;;;;;;5007223;28;20561;-70
2022/05/08 02:42:46;;;;;;;3.17;1.40;;;7.50;99.90;;;;;;5006286;28;20037;-69
2022/05/08 02:45:13;;;;;;;2.80;1.55;;;7.50;99.90;;;;;;5007238;28;20520;-72
2022/05/08 02:47:40;;;;;;;10.02;1.80;;;7.50;99.90;;;;;;5006346;28;20054;-70
2022/05/08 02:50:09;;;;;;;7.13;1.65;;;7.50;99.90;;;;;;5000664;28;20051;-69
2022/05/08 02:52:36;;;;;;;9.30;2.00;;;7.50;99.90;;;;;;4987472;28;20030;-70
2022/05/08 02:58:32;;;;;;;1.73;1.08;;;7.50;99.90;;;;;;4987259;28;20035;-70
2022/05/08 03:00:40;;;;;;;20.90;2.38;;;7.40;99.90;;;;;;4987572;28;20587;-70
2022/05/08 03:03:06;;;;;;;5.60;1.48;;;7.40;99.90;;;;;;4986900;28;20061;-70
2022/05/08 03:05:32;;;;;;;4.72;2.13;;;7.40;99.90;;;;;;4987108;28;20030;-70
2022/05/08 03:07:58;;;;;;;11.93;1.60;;;7.40;99.90;;;;;;4987047;28;20778;-70
2022/05/08 03:10:24;;;;;;;12.48;1.95;;;7.40;99.90;;;;;;4986808;28;20022;-71
2022/05/08 03:12:50;;;;;;;1.90;1.25;;;7.30;99.90;;;;;;4975342;28;20026;-70
2022/05/08 03:15:17;;;;;;;6.65;2.33;;;7.20;99.90;;;;;;4987242;28;20094;-69
2022/05/08 03:17:43;;;;;;;9.30;1.58;;;7.20;99.90;;;;;;4986734;28;20046;-70
2022/05/08 03:20:09;;;;;;;2.78;1.65;;;7.10;99.90;;;;;;4986952;28;20488;-70
2022/05/08 03:22:36;;;;;;;5.22;1.45;;;7.10;99.90;;;;;;4985525;28;20098;-70
2022/05/08 03:25:02;;;;;;;4.90;1.63;;;7.10;99.90;;;;;;4986399;28;20026;-70
2022/05/08 03:27:30;;;;;;;4.43;1.75;;;7.10;99.90;;;;;;4986888;28;20030;-70
2022/05/08 03:29:56;;;;;;;4.43;1.95;;;7.00;99.90;;;;;;4986958;28;20030;-72
2022/05/08 03:32:22;;;;;;;2.65;1.45;;;7.00;99.90;;;;;;4986555;28;20027;-71
2022/05/08 03:34:47;;;;;;;5.35;1.95;;;7.00;99.90;;;;;;4986994;28;20034;-70
2022/05/08 03:37:13;;;;;;;8.00;1.65;;;7.00;99.90;;;;;;4986939;28;20023;-70
2022/05/08 03:39:38;;;;;;;6.90;2.35;;;7.00;99.90;;;;;;4986357;28;20045;-69
2022/05/08 03:42:04;;;;;;;2.78;1.45;;;6.90;99.90;;;;;;5002056;28;20034;-70
2022/05/08 03:44:30;;;;;;;5.35;1.52;;;6.90;99.90;;;;;;5000822;28;20101;-70
2022/05/08 03:46:56;;;;;;;5.28;2.13;;;6.80;99.90;;;;;;5005339;28;20062;-71
2022/05/08 03:49:21;;;;;;;2.67;1.48;;;6.90;99.90;;;;;;4997702;28;20046;-70
2022/05/08 03:51:47;;;;;;;3.40;1.60;;;6.80;99.90;;;;;;4986233;28;20046;-71
2022/05/08 03:54:13;;;;;;;1.80;1.13;;;6.80;99.90;;;;;;4986412;28;20054;-70
2022/05/08 03:56:38;;;;;;;10.43;1.40;;;6.70;99.90;;;;;;4985494;28;20027;-71
2022/05/08 03:59:04;;;;;;;4.65;1.52;;;6.70;99.90;;;;;;5004398;28;20050;-70
2022/05/08 04:01:29;;;;;;;5.22;1.63;;;6.70;99.90;;;;;;4996333;28;20031;-71
2022/05/08 04:03:55;;;;;;;9.32;1.90;;;6.70;99.90;;;;;;5003392;28;20042;-70
2022/05/08 04:06:21;;;;;;;6.95;1.30;;;6.70;99.90;;;;;;4993766;28;20058;-72
2022/05/08 04:08:47;;;;;;;4.18;2.00;;;6.70;99.90;;;;;;4987217;28;20402;-73
2022/05/08 04:11:13;;;;;;;9.60;1.27;;;6.70;99.90;;;;;;5005378;28;20030;-70
2022/05/08 04:13:39;;;;;;;3.15;1.20;;;6.70;99.90;;;;;;5005409;28;20038;-70
2022/05/08 04:16:17;;;;;;;16.83;1.83;;;6.70;99.90;;;;;;5005528;28;20035;-70
2022/05/08 04:18:43;;;;;;;4.68;2.00;;;6.70;99.90;;;;;;5005710;28;20662;-70
2022/05/08 04:21:09;;;;;;;2.00;1.42;;;6.70;99.90;;;;;;5005320;28;20037;-70
2022/05/08 04:26:19;;;;;;;11.10;2.35;;;6.80;99.90;;;;;;4987999;28;20407;-70
2022/05/08 04:28:45;;;;;;;3.63;1.63;;;6.90;99.90;;;;;;4993132;28;20980;-71
2022/05/08 04:31:10;;;;;;;5.97;2.25;;;6.90;99.90;;;;;;4993632;28;20074;-70
2022/05/08 04:33:36;;;;;;;6.20;1.30;;;6.90;99.90;;;;;;5001557;28;20026;-70
2022/05/08 04:36:01;;;;;;;5.10;1.65;;;6.90;99.90;;;;;;4989261;28;20031;-72
2022/05/08 04:38:27;;;;;;;2.28;1.40;;;6.90;99.90;;;;;;4980637;28;20368;-72
2022/05/08 04:40:52;;;;;;;6.53;1.23;;;6.90;99.90;;;;;;5005553;28;20046;-72
2022/05/08 04:43:19;;;;;;;7.10;2.30;;;6.90;99.90;;;;;;5005119;28;20139;-72
2022/05/08 04:45:44;;;;;;;8.85;1.60;;;7.00;99.90;;;;;;5001652;28;20034;-70
2022/05/08 04:48:10;;;;;;;3.90;1.60;;;7.00;99.90;;;;;;5002667;28;20096;-70
2022/05/08 04:50:37;;;;;;;2.83;1.88;;;7.00;99.90;;;;;;5002359;28;20030;-71
2022/05/08 04:53:03;;;;;;;2.80;1.60;;;7.10;99.90;;;;;;4995213;28;20022;-71
2022/05/08 04:55:28;;;;;;;11.95;1.92;;;7.10;99.90;;;;;;4986559;28;20081;-71
2022/05/08 04:57:54;;;;;;;2.08;1.45;;;7.20;99.90;;;;;;5005333;28;20038;-70
2022/05/08 05:00:21;;;;;;;9.77;1.40;;;7.20;99.90;;;;;;4987583;28;20157;-71
2022/05/08 05:02:48;;;;;;;6.43;2.22;;;7.30;99.90;;;;;;5004901;28;20022;-70
2022/05/08 05:05:13;;;;;;;7.50;1.58;;;7.30;99.90;;;;;;5005466;28;20038;-71
2022/05/08 05:07:41;;;;;;;3.63;2.00;;;7.40;99.90;;;;;;5000316;28;20026;-70
2022/05/08 05:10:11;;;;;;;6.05;1.63;;;7.40;99.90;;;;;;5003177;28;20085;-71
2022/05/08 05:12:38;;;;;;;2.65;1.13;;;7.60;99.90;;;;;;4997924;28;20038;-70
2022/05/08 05:15:05;;;;;;;9.23;1.83;;;7.60;99.90;;;;;;4988009;28;20019;-70
2022/05/08 05:17:31;;;;;;;2.22;1.40;;;7.70;99.90;;;;;;4989013;28;20039;-70
2022/05/08 05:19:56;;;;;;;13.30;1.65;;;7.70;99.90;;;;;;4989220;28;20066;-70
2022/05/08 05:22:23;;;;;;;5.65;2.17;;;7.80;99.90;;;;;;4989362;28;20027;-70
2022/05/08 05:24:49;;;;;;;11.93;2.17;;;7.80;99.90;;;;;;4989048;28;20372;-70
2022/05/08 05:27:15;;;;;;;3.53;1.42;;;7.80;99.90;;;;;;4989286;28;20066;-71
2022/05/08 05:29:41;;;;;;;2.20;1.23;;;7.90;99.90;;;;;;4988994;28;20033;-69
2022/05/08 05:32:07;;;;;;;3.22;1.15;;;7.90;99.90;;;;;;4995235;28;20057;-71
2022/05/08 05:34:33;;;;;;;5.45;1.73;;;7.90;99.90;;;;;;4989351;28;20034;-70
2022/05/08 05:36:59;;;;;;;8.50;2.03;;;8.00;99.90;;;;;;5002251;28;20081;-70
2022/05/08 05:39:24;;;;;;;6.30;1.48;;;8.00;99.90;;;;;;5001461;28;20461;-70
2022/05/08 05:41:51;;;;;;;3.28;1.63;;;8.10;99.90;;;;;;5006483;28;20387;-71
2022/05/08 05:44:16;;;;;;;6.63;1.40;;;8.20;99.90;;;;;;5004677;28;20034;-69
2022/05/08 05:49:27;;;;;;;2.15;1.20;;;8.40;99.90;;;;;;5008330;28;20037;-72
2022/05/08 05:51:53;;;;;;;11.82;2.08;;;8.40;99.90;;;;;;5000269;28;20030;-72
2022/05/08 05:54:21;;;;;;;4.78;1.42;;;8.40;99.90;;;;;;4990550;28;20030;-70
2022/05/08 05:56:48;;;;;;;1.58;1.02;;;8.50;99.90;;;;;;5006707;28;20033;-70
2022/05/08 05:59:14;;;;;;;4.15;1.98;;;8.50;99.90;;;;;;5006652;28;20042;-70
2022/05/08 06:01:39;;;;;;;4.32;1.38;;;8.60;99.90;;;;;;5007868;28;20435;-69
2022/05/08 06:04:05;;;;;;;3.20;1.23;;;8.60;99.90;;;;;;5007365;28;20045;-70
2022/05/08 06:06:31;;;;;;;9.57;1.83;;;8.70;99.90;;;;;;5004357;28;20026;-70
2022/05/08 06:08:56;;;;;;;4.07;1.77;;;8.70;99.90;;;;;;4997604;28;20034;-70
2022/05/08 06:11:22;;;;;;;16.17;1.65;;;8.80;99.90;;;;;;4996997;28;20031;-70
2022/05/08 06:13:48;;;;;;;4.03;1.75;;;8.90;99.90;;;;;;5000226;28;20041;-71
2022/05/08 06:16:13;;;;;;;4.70;1.60;;;9.00;99.90;;;;;;5006794;28;20153;-70
2022/05/08 06:18:39;;;;;;;4.53;1.00;;;9.00;99.90;;;;;;5004647;28;20046;-70
2022/05/08 06:21:04;;;;;;;2.33;1.23;;;9.00;99.90;;;;;;5007610;28;20029;-69
2022/05/08 06:23:30;;;;;;;3.78;1.50;;;9.10;99.90;;;;;;4999616;28;20030;-70
2022/05/08 06:25:55;;;;;;;4.38;1.65;;;9.20;99.90;;;;;;4989953;28;20046;-70
2022/05/08 06:28:21;;;;;;;4.60;1.48;;;9.30;99.90;;;;;;4994953;28;20030;-71
2022/05/08 06:30:47;;;;;;;1.60;1.35;;;9.30;99.90;;;;;;5006714;28;20037;-69
2022/05/08 06:33:13;;;;;;;3.95;1.63;;;9.40;99.90;;;;;;5006472;28;20035;-70
2022/05/08 06:35:41;;;;;;;7.40;1.77;;;9.50;99.90;;;;;;4994121;28;20030;-69
2022/05/08 06:38:10;;;;;;;1.58;1.17;;;9.50;99.90;;;;;;4987793;28;20513;-70
2022/05/08 06:40:38;;;;;;;11.70;1.20;;;9.60;99.90;;;;;;4987645;28;20114;-70
2022/05/08 06:43:04;;;;;;;7.18;1.63;;;9.80;99.90;;;;;;4987620;28;20448;-70
2022/05/08 06:45:29;;;;;;;8.25;1.33;;;9.90;99.90;;;;;;4997646;28;20062;-69
2022/05/08 06:47:55;;;;;;;8.18;1.45;;;10.00;99.90;;;;;;4998943;28;20103;-70
2022/05/08 06:50:21;;;;;;;8.95;2.25;;;10.10;99.90;;;;;;5006160;28;20042;-70
2022/05/08 06:52:50;;;;;;;2.55;1.23;;;10.20;99.90;;;;;;5003831;28;20037;-69
2022/05/08 06:55:15;;;;;;;1.67;1.02;;;10.20;99.90;;;;;;5006625;28;20030;-70
2022/05/08 06:57:42;;;;;;;7.93;1.60;;;10.30;99.90;;;;;;4997612;28;20038;-71
2022/05/08 07:02:52;;;;;;;5.15;1.30;;;10.40;99.90;;;;;;4997723;28;20062;-71
2022/05/08 07:05:18;;;;;;;17.92;2.60;;;10.50;99.90;;;;;;5004988;28;20039;-71
2022/05/08 07:07:43;;;;;;;10.85;1.60;;;10.70;99.90;;;;;;5006995;28;20038;-71
2022/05/08 07:10:10;;;;;;;6.63;2.03;;;10.80;99.90;;;;;;5006473;28;20053;-70
2022/05/08 07:12:36;;;;;;;6.10;1.23;;;10.90;99.90;;;;;;5006784;28;20040;-70
2022/05/08 07:15:03;;;;;;;2.53;1.30;;;11.00;99.90;;;;;;5000545;28;20094;-71
2022/05/08 07:17:30;;;;;;;8.02;1.73;;;11.10;99.90;;;;;;4993480;28;20050;-71
2022/05/08 07:19:57;;;;;;;6.75;1.92;;;11.10;99.90;;;;;;4995658;28;20478;-71
2022/05/08 07:22:23;;;;;;;3.90;1.60;;;11.20;99.90;;;;;;4995521;28;20035;-69
2022/05/08 07:24:49;;;;;;;8.52;1.42;;;11.30;99.90;;;;;;5005235;28;20031;-70
2022/05/08 07:27:14;;;;;;;6.20;2.35;;;11.40;99.90;;;;;;5006013;28;20029;-68
2022/05/08 07:29:44;;;;;;;11.15;2.03;;;11.50;99.90;;;;;;4996917;28;20050;-68
2022/05/08 07:32:10;;;;;;;9.10;1.77;;;11.60;99.90;;;;;;4986844;28;20109;-70
2022/05/08 07:37:21;;;;;;;9.02;1.85;;;11.60;99.90;;;;;;4986866;28;20038;-71
2022/05/08 07:39:47;;;;;;;5.80;1.95;;;11.70;99.90;;;;;;4986742;28;20043;-69
2022/05/08 07:42:16;;;;;;;15.63;2.22;;;11.80;99.90;;;;;;4987486;28;20039;-70
2022/05/08 07:44:42;;;;;;;7.32;1.90;;;11.90;99.90;;;;;;4985814;28;20068;-69
2022/05/08 07:47:07;;;;;;;12.70;1.35;;;12.10;99.90;;;;;;4991003;28;20050;-68
2022/05/08 07:49:33;;;;;;;3.88;1.90;;;12.20;99.90;;;;;;4991699;28;20042;-69
2022/05/08 07:51:59;;;;;;;5.72;1.55;;;12.20;99.90;;;;;;4997320;28;20104;-69
2022/05/08 07:54:25;;;;;;;4.20;1.52;;;12.10;99.90;;;;;;4987519;28;20027;-70
2022/05/08 07:56:51;;;;;;;5.85;1.67;;;12.00;99.90;;;;;;4986016;28;20023;-71
2022/05/08 07:59:17;;;;;;;12.07;1.98;;;11.90;99.90;;;;;;4994859;28;20428;-68
2022/05/08 08:01:43;;;;;;;6.13;1.85;;;11.90;99.90;;;;;;4989778;28;20048;-69
2022/05/08 08:04:10;;;;;;;1.70;1.17;;;11.80;99.90;;;;;;4988764;28;20027;-68
2022/05/08 08:06:36;;;;;;;5.53;1.88;;;11.90;99.90;;;;;;4994226;28;20031;-70
2022/05/08 08:09:02;;;;;;;14.13;1.73;;;11.90;99.90;;;;;;4986331;28;20030;-70
2022/05/08 08:11:27;;;;;;;12.48;2.47;;;12.00;99.90;;;;;;4985751;28;20027;-70
2022/05/08 08:13:55;;;;;;;11.00;2.40;;;12.10;99.90;;;;;;4988126;28;20015;-68
2022/05/08 08:16:21;;;;;;;7.95;1.55;;;12.20;99.90;;;;;;4977076;28;20073;-71
2022/05/08 08:18:48;;;;;;;10.20;1.95;;;12.10;99.90;;;;;;4991288;28;20046;-68
2022/05/08 08:21:16;;;;;;;3.88;1.67;;;12.30;99.90;;;;;;4994413;28;20109;-69
2022/05/08 08:23:43;;;;;;;3.33;1.52;;;12.40;99.90;;;;;;4995329;28;20084;-70
2022/05/08 08:26:10;;;;;;;2.38;1.33;;;12.50;99.90;;;;;;4996375;28;20033;-69
2022/05/08 08:28:36;;;;;;;3.58;1.73;;;12.40;99.90;;;;;;4989394;28;20046;-69
2022/05/08 08:31:01;;;;;;;2.95;1.25;;;12.30;99.90;;;;;;4986626;28;20030;-71
2022/05/08 08:33:30;;;;;;;5.75;1.52;;;12.40;99.90;;;;;;4995814;28;20062;-69
2022/05/08 08:35:56;;;;;;;6.00;1.80;;;12.40;99.90;;;;;;4985596;28;20034;-68
2022/05/08 08:38:21;;;;;;;7.55;2.47;;;12.50;99.90;;;;;;4985180;28;20070;-70
2022/05/08 08:40:50;;;;;;;3.70;1.38;;;12.60;99.90;;;;;;4996605;28;20443;-68
2022/05/08 08:43:16;;;;;;;6.57;1.73;;;12.70;99.90;;;;;;4989661;28;20079;-69
2022/05/08 08:48:28;;;;;;;1.83;1.02;;;13.00;99.90;;;;;;4999009;28;20041;-70
2022/05/08 08:50:58;;;;;;;8.88;1.45;;;13.20;99.90;;;;;;4995859;28;20030;-69
2022/05/08 08:53:25;;;;;;;17.90;2.47;;;13.40;99.90;;;;;;4996322;28;20031;-70
2022/05/08 08:55:54;;;;;;;11.82;2.17;;;13.40;99.90;;;;;;4999820;28;20029;-70
2022/05/08 08:58:20;;;;;;;10.68;1.50;;;13.40;99.90;;;;;;5009180;28;20169;-70
2022/05/08 09:00:49;;;;;;;7.65;2.03;;;13.50;99.90;;;;;;5005631;28;20546;-73
2022/05/08 09:03:25;;;;;;;4.63;1.23;;;13.40;99.90;;;;;;5002890;28;20058;-71
2022/05/08 09:05:55;;;;;;;25.15;2.03;;;13.50;99.90;;;;;;5002172;28;20033;-71
2022/05/08 09:08:29;;;;;;;7.72;1.33;;;13.70;99.90;;;;;;5007369;28;20037;-71
2022/05/08 09:10:58;;;;;;;2.65;1.05;;;13.60;99.90;;;;;;5001302;28;20087;-72
2022/05/08 09:13:35;;;;;;;4.80;1.67;;;13.70;99.90;;;;;;5008479;28;20030;-72
2022/05/08 09:16:06;;;;;;;3.50;1.42;;;13.70;99.90;;;;;;5007637;28;20513;-71
2022/05/08 09:18:45;;;;;;;3.85;1.45;;;13.70;99.90;;;;;;5008406;28;20045;-70
2022/05/08 09:24:12;;;;;;;6.40;1.85;;;13.90;99.90;;;;;;5007336;28;20125;-71
2022/05/08 09:26:38;;;;;;;3.38;1.58;;;13.90;99.90;;;;;;4994766;28;20073;-72
2022/05/08 09:29:04;;;;;;;6.28;1.85;;;13.90;99.90;;;;;;4990253;28;20035;-72
2022/05/08 09:31:40;;;;;;;11.15;2.20;;;14.10;99.90;;;;;;5004770;28;20027;-71
2022/05/08 09:34:06;;;;;;;5.70;1.27;;;14.20;99.90;;;;;;5007865;28;20026;-71
2022/05/08 09:36:32;;;;;;;5.93;1.80;;;14.10;99.90;;;;;;5004333;28;20065;-71
2022/05/08 09:39:00;;;;;;;4.95;1.70;;;14.00;99.90;;;;;;5008174;28;20046;-68
2022/05/08 09:41:30;;;;;;;19.48;2.17;;;14.10;99.90;;;;;;5008061;28;20032;-71
2022/05/08 09:44:10;;;;;;;3.47;1.45;;;14.10;99.90;;;;;;4997728;28;20038;-71
2022/05/08 09:46:39;;;;;;;7.13;1.48;;;14.10;99.90;;;;;;4986742;28;20232;-70
2022/05/08 09:49:06;;;;;;;5.00;2.10;;;14.10;99.90;;;;;;4996766;28;20030;-69
2022/05/08 09:51:36;;;;;;;4.65;1.30;;;14.20;99.90;;;;;;4995011;28;20026;-72
2022/05/08 09:54:03;;;;;;;7.53;1.45;;;14.30;99.90;;;;;;4994423;28;20031;-71
2022/05/08 09:56:31;;;;;;;14.32;1.83;;;14.30;99.90;;;;;;5006063;28;20497;-70
2022/05/08 09:58:57;;;;;;;2.40;1.27;;;14.40;99.90;;;;;;4999189;28;20069;-70
2022/05/08 10:01:24;;;;;;;9.18;1.58;;;14.60;99.90;;;;;;4986744;28;20035;-72
2022/05/08 10:03:51;;;;;;;3.67;1.33;;;14.70;99.90;;;;;;4992834;28;20023;-71
2022/05/08 10:06:18;;;;;;;4.55;1.50;;;14.90;99.90;;;;;;5004080;28;20137;-71
2022/05/08 10:08:45;;;;;;;4.38;1.20;;;15.00;99.90;;;;;;5003636;28;20046;-73
2022/05/08 10:14:03;;;;;;;4.10;1.63;;;15.00;99.90;;;;;;5007676;28;20041;-72
2022/05/08 10:17:08;;;;;;;10.90;1.58;;;15.20;99.90;;;;;;4994963;28;20050;-71
2022/05/08 10:19:33;;;;;;;11.13;1.92;;;15.40;99.90;;;;;;4926781;29;20104;-70
2022/05/08 10:22:00;;;;;;;2.50;1.30;;;15.40;99.90;;;;;;4976297;28;20039;-72
2022/05/08 10:24:32;;;;;;;3.65;1.63;;;15.60;99.90;;;;;;4988455;28;20023;-71
2022/05/08 10:27:22;;;;;;;5.90;1.55;;;15.50;99.90;;;;;;5000516;28;20038;-71
2022/05/08 10:29:51;;;;;;;3.33;1.65;;;15.40;99.90;;;;;;5006757;28;20027;-71
2022/05/08 10:32:29;;;;;;;2.70;1.20;;;15.60;99.90;;;;;;5005941;28;20132;-71
2022/05/08 10:35:23;;;;;;;8.90;2.35;;;15.70;99.90;;;;;;5007014;28;20475;-70
2022/05/08 10:38:07;;;;;;;7.53;2.08;;;15.80;99.90;;;;;;4989031;28;20037;-72
2022/05/08 10:40:35;;;;;;;4.65;1.52;;;15.90;99.90;;;;;;4990610;28;20030;-69
2022/05/08 10:43:25;;;;;;;2.58;1.27;;;15.90;99.90;;;;;;4986423;28;20034;-71
2022/05/08 10:45:53;;;;;;;4.68;1.85;;;16.00;99.90;;;;;;4987533;28;20058;-71
2022/05/08 10:48:19;;;;;;;8.07;1.65;;;16.00;99.90;;;;;;4988545;28;20029;-70
2022/05/08 10:50:53;;;;;;;8.05;1.02;;;15.90;99.90;;;;;;4979699;28;20030;-71
2022/05/08 10:53:26;;;;;;;3.63;1.88;;;15.90;99.90;;;;;;4990339;28;20058;-71
2022/05/08 10:55:53;;;;;;;11.15;1.77;;;15.90;99.90;;;;;;5005097;28;20034;-72
2022/05/08 10:58:18;;;;;;;2.10;1.45;;;15.90;99.90;;;;;;5005833;28;20018;-71
2022/05/08 11:00:48;;;;;;;1.92;1.15;;;15.90;99.90;;;;;;4998540;28;20091;-70
2022/05/08 11:03:21;;;;;;;2.70;1.40;;;15.90;99.90;;;;;;4996991;28;20030;-71
2022/05/08 11:05:47;;;;;;;18.20;1.85;;;15.90;99.90;;;;;;5006083;28;20082;-72
2022/05/08 11:08:28;;;;;;;2.75;1.08;;;15.70;99.90;;;;;;4991183;28;20038;-70
2022/05/08 11:11:12;;;;;;;13.23;1.75;;;15.80;99.90;;;;;;4987381;28;20110;-73
2022/05/08 11:13:43;;;;;;;6.68;2.60;;;16.00;99.90;;;;;;4991952;28;20038;-70
2022/05/08 11:16:11;;;;;;;4.63;1.15;;;16.20;99.90;;;;;;5004714;28;20058;-71
2022/05/08 11:18:36;;;;;;;4.75;1.83;;;16.30;99.90;;;;;;5005947;28;20042;-71
2022/05/08 11:21:04;;;;;;;5.68;1.85;;;16.50;99.90;;;;;;4997807;28;20058;-71
2022/05/08 11:23:33;;;;;;;8.00;1.70;;;16.70;99.90;;;;;;5005618;28;20028;-70
2022/05/08 11:26:02;;;;;;;6.13;1.45;;;16.80;99.90;;;;;;5005340;28;20018;-71
2022/05/08 11:28:29;;;;;;;4.43;1.30;;;16.90;99.90;;;;;;5006102;28;20348;-73
2022/05/08 11:30:57;;;;;;;2.53;1.02;;;16.90;99.90;;;;;;5006335;28;20034;-70
2022/05/08 11:36:35;;;;;;;4.38;1.45;;;17.20;99.90;;;;;;5006595;28;20057;-70
2022/05/08 11:39:04;;;;;;;4.90;1.63;;;17.40;99.90;;;;;;5005353;28;20038;-70
2022/05/08 11:41:34;;;;;;;3.85;1.33;;;17.40;99.90;;;;;;5004094;28;20026;-70
2022/05/08 11:44:24;;;;;;;4.40;1.23;;;17.30;99.90;;;;;;5004095;28;20049;-71
2022/05/08 11:46:57;;;;;;;6.53;1.67;;;17.20;99.90;;;;;;4983108;28;20053;-72
2022/05/08 11:49:35;;;;;;;5.63;0.82;;;17.20;99.90;;;;;;4986461;28;20061;-72
2022/05/08 11:52:03;;;;;;;11.60;2.20;;;17.30;99.90;;;;;;4986850;28;20049;-71
2022/05/08 11:54:40;;;;;;;5.53;1.35;;;17.50;99.90;;;;;;4995244;28;20454;-72
2022/05/08 11:57:21;;;;;;;4.28;1.25;;;17.60;99.90;;;;;;5004095;28;20503;-72
2022/05/08 11:59:50;;;;;;;6.32;2.25;;;17.70;99.90;;;;;;4998894;28;20030;-72
2022/05/08 12:02:17;;;;;;;4.43;0.80;;;17.80;99.90;;;;;;5005650;28;20026;-72
2022/05/08 12:04:54;;;;;;;3.90;1.90;;;17.90;99.90;;;;;;5005685;28;20027;-70
2022/05/08 12:07:19;;;;;;;9.07;1.48;;;17.90;99.90;;;;;;5005659;28;20032;-70
2022/05/08 12:09:45;;;;;;;4.35;0.98;;;18.10;99.90;;;;;;5005852;28;20050;-70
2022/05/08 12:12:23;;;;;;;7.90;1.63;;;18.20;99.90;;;;;;5005768;28;20030;-70
2022/05/08 12:14:50;;;;;;;2.78;1.05;;;18.20;99.90;;;;;;5005478;28;20498;-72
2022/05/08 12:17:16;;;;;;;6.03;1.67;;;18.30;99.90;;;;;;5005111;28;20030;-72
2022/05/08 12:19:53;;;;;;;3.10;1.42;;;18.40;99.90;;;;;;5005328;28;20134;-72
2022/05/08 12:22:24;;;;;;;2.83;1.13;;;18.40;99.90;;;;;;4988211;28;20026;-72
2022/05/08 12:24:51;;;;;;;2.97;1.40;;;18.40;99.90;;;;;;5005811;28;20027;-71
2022/05/08 12:27:17;;;;;;;13.50;1.65;;;18.50;99.90;;;;;;4988044;28;20030;-72
2022/05/08 12:29:46;;;;;;;5.72;1.85;;;18.80;99.90;;;;;;5002794;28;20367;-72
2022/05/08 12:32:14;;;;;;;4.65;1.83;;;19.10;99.90;;;;;;4992791;28;20372;-73
2022/05/08 12:34:41;;;;;;;2.70;1.52;;;19.50;99.90;;;;;;4987531;28;20034;-73
2022/05/08 12:37:11;;;;;;;5.57;1.20;;;19.70;99.90;;;;;;4986071;28;20054;-72
2022/05/08 12:39:37;;;;;;;2.15;1.05;;;19.80;99.90;;;;;;4985939;28;20046;-75
2022/05/08 12:42:03;;;;;;;8.57;1.42;;;20.00;99.90;;;;;;5000793;28;20030;-72
2022/05/08 12:44:28;;;;;;;3.00;0.90;;;20.00;99.90;;;;;;5001752;28;20034;-71
2022/05/08 12:46:54;;;;;;;7.30;1.13;;;19.80;99.60;;;;;;4985562;28;20129;-72
2022/05/08 12:49:21;;;;;;;3.83;1.30;;;19.90;99.90;;;;;;4985653;28;20106;-73
2022/05/08 12:51:46;;;;;;;5.95;1.65;;;20.00;96.70;;;;;;4998789;28;20434;-68
2022/05/08 12:54:12;;;;;;;2.35;0.90;;;19.80;97.40;;;;;;5004808;28;20034;-72
2022/05/08 12:56:38;;;;;;;7.15;1.30;;;19.60;97.80;;;;;;5005016;28;20031;-70
2022/05/08 13:01:49;;;;;;;2.60;1.30;;;19.60;99.80;;;;;;5001537;28;20045;-71
2022/05/08 13:04:15;;;;;;;5.65;1.15;;;19.80;99.90;;;;;;5005117;28;20117;-71
2022/05/08 13:06:41;;;;;;;4.30;1.08;;;20.00;99.90;;;;;;4994323;28;20069;-72
2022/05/08 13:09:07;;;;;;;4.47;1.33;;;20.10;99.90;;;;;;4985356;28;20058;-71
2022/05/08 13:11:37;;;;;;;5.13;1.15;;;20.20;99.90;;;;;;4985834;28;20018;-71
2022/05/08 13:14:04;;;;;;;1.70;1.17;;;20.40;98.50;;;;;;4985603;28;20034;-71
2022/05/08 13:16:29;;;;;;;6.90;1.35;;;20.60;98.80;;;;;;4985125;28;20045;-73
2022/05/08 13:18:55;;;;;;;8.00;1.45;;;20.80;99.70;;;;;;4995426;28;20085;-71
2022/05/08 13:21:21;;;;;;;7.97;2.08;;;21.10;97.30;;;;;;5000288;28;20038;-73